sensor_id;sensor_type;location;lat;lon;timestamp;temperature;humidity
5938;DHT22;2994;51.220;4.412;2023-05-08T00:01:04;18.99;77.53
5938;DHT22;2994;51.220;4.412;2023-05-08T00:03:30;18.86;78.15
5938;DHT22;2994;51.220;4.412;2023-05-08T00:05:55;18.80;78.21
5938;DHT22;2994;51.220;4.412;2023-05-08T00:08:21;18.82;77.98
5938;DHT22;2994;51.220;4.412;2023-05-08T00:10:47;18.77;78.53
5938;DHT22;2994;51.220;4.412;2023-05-08T00:13:13;18.73;78.45
5938;DHT22;2994;51.220;4.412;2023-05-08T00:15:38;18.78;78.04
5938;DHT22;2994;51.220;4.412;2023-05-08T00:18:04;18.72;78.12
5938;DHT22;2994;51.220;4.412;2023-05-08T00:20:29;18.70;78.02
5938;DHT22;2994;51.220;4.412;2023-05-08T00:22:55;18.71;77.89
5938;DHT22;2994;51.220;4.412;2023-05-08T00:25:22;18.64;78.01
5938;DHT22;2994;51.220;4.412;2023-05-08T00:27:47;18.66;77.82
5938;DHT22;2994;51.220;4.412;2023-05-08T00:30:13;18.64;77.80
5938;DHT22;2994;51.220;4.412;2023-05-08T00:32:38;18.66;77.63
5938;DHT22;2994;51.220;4.412;2023-05-08T00:35:04;18.65;77.56
5938;DHT22;2994;51.220;4.412;2023-05-08T00:37:30;18.64;77.54
5938;DHT22;2994;51.220;4.412;2023-05-08T00:39:55;18.65;77.29
5938;DHT22;2994;51.220;4.412;2023-05-08T00:42:20;18.68;77.16
5938;DHT22;2994;51.220;4.412;2023-05-08T00:44:46;18.66;77.08
5938;DHT22;2994;51.220;4.412;2023-05-08T00:47:12;18.65;76.74
5938;DHT22;2994;51.220;4.412;2023-05-08T00:49:37;18.61;76.78
5938;DHT22;2994;51.220;4.412;2023-05-08T00:52:03;18.61;76.66
5938;DHT22;2994;51.220;4.412;2023-05-08T00:54:33;18.59;76.53
5938;DHT22;2994;51.220;4.412;2023-05-08T00:56:59;18.59;76.53
5938;DHT22;2994;51.220;4.412;2023-05-08T00:59:25;18.59;76.43
5938;DHT22;2994;51.220;4.412;2023-05-08T01:01:51;18.58;76.01
5938;DHT22;2994;51.220;4.412;2023-05-08T01:04:20;18.55;76.02
5938;DHT22;2994;51.220;4.412;2023-05-08T01:06:45;18.52;76.30
5938;DHT22;2994;51.220;4.412;2023-05-08T01:09:11;18.50;76.10
5938;DHT22;2994;51.220;4.412;2023-05-08T01:11:55;18.46;76.05
5938;DHT22;2994;51.220;4.412;2023-05-08T01:17:29;18.41;75.80
5938;DHT22;2994;51.220;4.412;2023-05-08T01:20:12;18.39;76.03
5938;DHT22;2994;51.220;4.412;2023-05-08T01:23:07;18.39;75.64
5938;DHT22;2994;51.220;4.412;2023-05-08T01:31:23;18.34;75.63
5938;DHT22;2994;51.220;4.412;2023-05-08T01:34:01;18.28;75.39
5938;DHT22;2994;51.220;4.412;2023-05-08T01:36:49;18.25;75.85
5938;DHT22;2994;51.220;4.412;2023-05-08T01:39:20;18.24;75.57
5938;DHT22;2994;51.220;4.412;2023-05-08T01:41:56;18.21;75.26
5938;DHT22;2994;51.220;4.412;2023-05-08T01:44:27;18.19;75.28
5938;DHT22;2994;51.220;4.412;2023-05-08T01:46:57;18.19;75.70
5938;DHT22;2994;51.220;4.412;2023-05-08T01:49:26;18.19;75.67
5938;DHT22;2994;51.220;4.412;2023-05-08T01:52:01;18.17;75.25
5938;DHT22;2994;51.220;4.412;2023-05-08T01:54:30;18.15;75.41
5938;DHT22;2994;51.220;4.412;2023-05-08T01:56:58;18.17;75.19
5938;DHT22;2994;51.220;4.412;2023-05-08T01:59:26;18.17;75.05
5938;DHT22;2994;51.220;4.412;2023-05-08T02:01:54;18.09;75.18
5938;DHT22;2994;51.220;4.412;2023-05-08T02:04:21;18.09;75.34
5938;DHT22;2994;51.220;4.412;2023-05-08T02:06:49;18.08;75.03
5938;DHT22;2994;51.220;4.412;2023-05-08T02:09:15;18.04;75.04
5938;DHT22;2994;51.220;4.412;2023-05-08T02:11:42;18.00;75.07
5938;DHT22;2994;51.220;4.412;2023-05-08T02:14:10;17.99;74.82
5938;DHT22;2994;51.220;4.412;2023-05-08T02:16:39;17.91;74.95
5938;DHT22;2994;51.220;4.412;2023-05-08T02:19:07;17.82;75.21
5938;DHT22;2994;51.220;4.412;2023-05-08T02:21:34;17.80;75.20
5938;DHT22;2994;51.220;4.412;2023-05-08T02:24:01;17.82;75.35
5938;DHT22;2994;51.220;4.412;2023-05-08T02:26:28;17.82;75.42
5938;DHT22;2994;51.220;4.412;2023-05-08T02:28:56;17.81;75.43
5938;DHT22;2994;51.220;4.412;2023-05-08T02:31:23;17.81;75.79
5938;DHT22;2994;51.220;4.412;2023-05-08T02:33:49;17.81;75.55
5938;DHT22;2994;51.220;4.412;2023-05-08T02:36:17;17.76;75.40
5938;DHT22;2994;51.220;4.412;2023-05-08T02:38:43;17.75;75.43
5938;DHT22;2994;51.220;4.412;2023-05-08T02:41:11;17.76;75.52
5938;DHT22;2994;51.220;4.412;2023-05-08T02:43:37;17.75;75.64
5938;DHT22;2994;51.220;4.412;2023-05-08T02:46:40;17.74;75.54
5938;DHT22;2994;51.220;4.412;2023-05-08T02:49:26;17.75;75.28
5938;DHT22;2994;51.220;4.412;2023-05-08T02:52:16;17.70;75.65
5938;DHT22;2994;51.220;4.412;2023-05-08T02:54:49;17.63;75.73
5938;DHT22;2994;51.220;4.412;2023-05-08T02:57:34;17.62;75.78
5938;DHT22;2994;51.220;4.412;2023-05-08T03:00:06;17.59;75.79
5938;DHT22;2994;51.220;4.412;2023-05-08T03:02:42;17.52;76.04
5938;DHT22;2994;51.220;4.412;2023-05-08T03:05:17;17.52;75.88
5938;DHT22;2994;51.220;4.412;2023-05-08T03:07:46;17.50;76.02
5938;DHT22;2994;51.220;4.412;2023-05-08T03:10:14;17.50;75.73
5938;DHT22;2994;51.220;4.412;2023-05-08T03:12:44;17.49;75.83
5938;DHT22;2994;51.220;4.412;2023-05-08T03:15:27;17.46;75.80
5938;DHT22;2994;51.220;4.412;2023-05-08T03:18:01;17.45;75.96
5938;DHT22;2994;51.220;4.412;2023-05-08T03:20:32;17.46;75.83
5938;DHT22;2994;51.220;4.412;2023-05-08T03:23:02;17.46;76.03
5938;DHT22;2994;51.220;4.412;2023-05-08T03:25:46;17.47;75.92
5938;DHT22;2994;51.220;4.412;2023-05-08T03:28:12;17.49;76.12
5938;DHT22;2994;51.220;4.412;2023-05-08T03:30:40;17.47;75.95
5938;DHT22;2994;51.220;4.412;2023-05-08T03:33:07;17.46;75.71
5938;DHT22;2994;51.220;4.412;2023-05-08T03:35:36;17.47;75.86
5938;DHT22;2994;51.220;4.412;2023-05-08T03:38:03;17.47;75.73
5938;DHT22;2994;51.220;4.412;2023-05-08T03:40:28;17.46;75.72
5938;DHT22;2994;51.220;4.412;2023-05-08T03:42:55;17.48;75.55
5938;DHT22;2994;51.220;4.412;2023-05-08T03:45:21;17.47;75.83
5938;DHT22;2994;51.220;4.412;2023-05-08T03:47:48;17.51;75.92
5938;DHT22;2994;51.220;4.412;2023-05-08T03:50:14;17.49;75.75
5938;DHT22;2994;51.220;4.412;2023-05-08T03:52:39;17.47;75.67
5938;DHT22;2994;51.220;4.412;2023-05-08T03:55:05;17.46;75.89
5938;DHT22;2994;51.220;4.412;2023-05-08T03:57:35;17.47;75.88
5938;DHT22;2994;51.220;4.412;2023-05-08T04:00:14;17.46;75.91
5938;DHT22;2994;51.220;4.412;2023-05-08T04:02:51;17.47;75.54
5938;DHT22;2994;51.220;4.412;2023-05-08T04:05:29;17.49;75.95
5938;DHT22;2994;51.220;4.412;2023-05-08T04:08:03;17.46;75.75
5938;DHT22;2994;51.220;4.412;2023-05-08T04:10:36;17.45;75.67
5938;DHT22;2994;51.220;4.412;2023-05-08T04:13:09;17.44;75.76
5938;DHT22;2994;51.220;4.412;2023-05-08T04:15:47;17.40;75.64
5938;DHT22;2994;51.220;4.412;2023-05-08T04:18:16;17.30;76.28
5938;DHT22;2994;51.220;4.412;2023-05-08T04:20:46;17.25;76.32
5938;DHT22;2994;51.220;4.412;2023-05-08T04:23:15;17.25;76.28
5938;DHT22;2994;51.220;4.412;2023-05-08T04:25:43;17.22;76.34
5938;DHT22;2994;51.220;4.412;2023-05-08T04:28:09;17.19;76.61
5938;DHT22;2994;51.220;4.412;2023-05-08T04:30:35;17.17;76.70
5938;DHT22;2994;51.220;4.412;2023-05-08T04:33:02;17.19;76.66
5938;DHT22;2994;51.220;4.412;2023-05-08T04:35:28;17.19;76.80
5938;DHT22;2994;51.220;4.412;2023-05-08T04:37:54;17.14;76.82
5938;DHT22;2994;51.220;4.412;2023-05-08T04:40:19;17.10;76.86
5938;DHT22;2994;51.220;4.412;2023-05-08T04:42:45;17.13;77.01
5938;DHT22;2994;51.220;4.412;2023-05-08T04:45:11;17.13;76.82
5938;DHT22;2994;51.220;4.412;2023-05-08T04:47:37;17.07;76.98
5938;DHT22;2994;51.220;4.412;2023-05-08T04:50:03;17.06;77.17
5938;DHT22;2994;51.220;4.412;2023-05-08T04:52:29;17.06;77.01
5938;DHT22;2994;51.220;4.412;2023-05-08T04:54:54;17.08;77.11
5938;DHT22;2994;51.220;4.412;2023-05-08T04:57:20;17.10;76.85
5938;DHT22;2994;51.220;4.412;2023-05-08T04:59:45;17.07;76.65
5938;DHT22;2994;51.220;4.412;2023-05-08T05:02:11;16.98;76.80
5938;DHT22;2994;51.220;4.412;2023-05-08T05:04:36;16.95;77.16
5938;DHT22;2994;51.220;4.412;2023-05-08T05:07:02;16.95;76.98
5938;DHT22;2994;51.220;4.412;2023-05-08T05:09:28;16.98;76.80
5938;DHT22;2994;51.220;4.412;2023-05-08T05:11:53;17.01;76.89
5938;DHT22;2994;51.220;4.412;2023-05-08T05:14:19;17.02;76.80
5938;DHT22;2994;51.220;4.412;2023-05-08T05:16:45;16.96;76.90
5938;DHT22;2994;51.220;4.412;2023-05-08T05:19:11;16.89;77.06
5938;DHT22;2994;51.220;4.412;2023-05-08T05:21:37;16.79;77.49
5938;DHT22;2994;51.220;4.412;2023-05-08T05:24:03;16.72;77.62
5938;DHT22;2994;51.220;4.412;2023-05-08T05:26:30;16.66;78.20
5938;DHT22;2994;51.220;4.412;2023-05-08T05:28:55;16.58;78.40
5938;DHT22;2994;51.220;4.412;2023-05-08T05:31:21;16.57;78.56
5938;DHT22;2994;51.220;4.412;2023-05-08T05:33:46;16.56;78.69
5938;DHT22;2994;51.220;4.412;2023-05-08T05:36:14;16.60;78.53
5938;DHT22;2994;51.220;4.412;2023-05-08T05:38:40;16.56;78.91
5938;DHT22;2994;51.220;4.412;2023-05-08T05:41:05;16.58;78.77
5938;DHT22;2994;51.220;4.412;2023-05-08T05:43:31;16.52;79.24
5938;DHT22;2994;51.220;4.412;2023-05-08T05:46:03;16.56;78.91
5938;DHT22;2994;51.220;4.412;2023-05-08T05:48:30;16.58;78.69
5938;DHT22;2994;51.220;4.412;2023-05-08T05:50:55;16.57;78.69
5938;DHT22;2994;51.220;4.412;2023-05-08T05:53:21;16.47;79.15
5938;DHT22;2994;51.220;4.412;2023-05-08T05:55:46;16.54;78.85
5938;DHT22;2994;51.220;4.412;2023-05-08T05:58:12;16.55;78.66
5938;DHT22;2994;51.220;4.412;2023-05-08T06:00:37;16.57;78.64
5938;DHT22;2994;51.220;4.412;2023-05-08T06:03:03;16.58;78.49
5938;DHT22;2994;51.220;4.412;2023-05-08T06:05:28;16.57;78.34
5938;DHT22;2994;51.220;4.412;2023-05-08T06:07:54;16.52;78.27
5938;DHT22;2994;51.220;4.412;2023-05-08T06:10:19;16.57;78.50
5938;DHT22;2994;51.220;4.412;2023-05-08T06:12:45;16.54;78.58
5938;DHT22;2994;51.220;4.412;2023-05-08T06:15:11;16.57;78.34
5938;DHT22;2994;51.220;4.412;2023-05-08T06:17:38;16.59;77.97
5938;DHT22;2994;51.220;4.412;2023-05-08T06:20:04;16.49;78.07
5938;DHT22;2994;51.220;4.412;2023-05-08T06:22:30;16.35;78.43
5938;DHT22;2994;51.220;4.412;2023-05-08T06:24:56;16.36;78.48
5938;DHT22;2994;51.220;4.412;2023-05-08T06:27:21;16.44;78.57
5938;DHT22;2994;51.220;4.412;2023-05-08T06:29:48;16.35;79.53
5938;DHT22;2994;51.220;4.412;2023-05-08T06:32:16;16.29;79.62
5938;DHT22;2994;51.220;4.412;2023-05-08T06:34:42;16.32;79.56
5938;DHT22;2994;51.220;4.412;2023-05-08T06:37:07;16.49;78.66
5938;DHT22;2994;51.220;4.412;2023-05-08T06:39:33;16.54;78.34
5938;DHT22;2994;51.220;4.412;2023-05-08T06:41:58;16.58;78.25
5938;DHT22;2994;51.220;4.412;2023-05-08T06:44:24;16.63;78.09
5938;DHT22;2994;51.220;4.412;2023-05-08T06:46:49;16.67;77.78
5938;DHT22;2994;51.220;4.412;2023-05-08T06:49:14;16.71;77.71
5938;DHT22;2994;51.220;4.412;2023-05-08T06:51:40;16.75;77.66
5938;DHT22;2994;51.220;4.412;2023-05-08T06:54:06;16.78;77.84
5938;DHT22;2994;51.220;4.412;2023-05-08T06:56:33;16.75;78.37
5938;DHT22;2994;51.220;4.412;2023-05-08T06:59:00;16.78;78.27
5938;DHT22;2994;51.220;4.412;2023-05-08T07:01:25;16.71;78.60
5938;DHT22;2994;51.220;4.412;2023-05-08T07:03:51;16.73;78.53
5938;DHT22;2994;51.220;4.412;2023-05-08T07:06:16;16.79;78.02
5938;DHT22;2994;51.220;4.412;2023-05-08T07:08:42;16.69;78.79
5938;DHT22;2994;51.220;4.412;2023-05-08T07:11:07;16.81;77.90
5938;DHT22;2994;51.220;4.412;2023-05-08T07:13:37;16.76;78.24
5938;DHT22;2994;51.220;4.412;2023-05-08T07:16:07;16.71;78.69
5938;DHT22;2994;51.220;4.412;2023-05-08T07:18:32;16.64;78.91
5938;DHT22;2994;51.220;4.412;2023-05-08T07:20:58;16.79;78.14
5938;DHT22;2994;51.220;4.412;2023-05-08T07:23:23;16.73;78.85
5938;DHT22;2994;51.220;4.412;2023-05-08T07:25:50;16.60;79.35
5938;DHT22;2994;51.220;4.412;2023-05-08T07:28:17;16.71;78.92
5938;DHT22;2994;51.220;4.412;2023-05-08T07:30:42;16.75;78.79
5938;DHT22;2994;51.220;4.412;2023-05-08T07:33:08;16.59;79.17
5938;DHT22;2994;51.220;4.412;2023-05-08T07:35:33;16.50;79.49
5938;DHT22;2994;51.220;4.412;2023-05-08T07:37:59;16.65;79.21
5938;DHT22;2994;51.220;4.412;2023-05-08T07:40:24;16.63;79.07
5938;DHT22;2994;51.220;4.412;2023-05-08T07:42:50;16.75;78.74
5938;DHT22;2994;51.220;4.412;2023-05-08T07:45:15;16.91;77.89
5938;DHT22;2994;51.220;4.412;2023-05-08T07:47:51;16.78;78.66
5938;DHT22;2994;51.220;4.412;2023-05-08T07:50:17;17.02;77.89
5938;DHT22;2994;51.220;4.412;2023-05-08T07:52:43;17.18;77.50
5938;DHT22;2994;51.220;4.412;2023-05-08T07:55:09;17.31;76.96
5938;DHT22;2994;51.220;4.412;2023-05-08T07:57:38;17.47;76.73
5938;DHT22;2994;51.220;4.412;2023-05-08T08:00:05;17.52;76.67
5938;DHT22;2994;51.220;4.412;2023-05-08T08:02:32;17.66;75.98
5938;DHT22;2994;51.220;4.412;2023-05-08T08:04:58;17.68;75.31
5938;DHT22;2994;51.220;4.412;2023-05-08T08:07:23;17.58;75.99
5938;DHT22;2994;51.220;4.412;2023-05-08T08:09:49;17.63;75.78
5938;DHT22;2994;51.220;4.412;2023-05-08T08:12:14;17.75;74.82
5938;DHT22;2994;51.220;4.412;2023-05-08T08:14:39;17.82;74.55
5938;DHT22;2994;51.220;4.412;2023-05-08T08:17:05;17.77;74.96
5938;DHT22;2994;51.220;4.412;2023-05-08T08:19:30;17.73;75.44
5938;DHT22;2994;51.220;4.412;2023-05-08T08:21:56;17.61;75.67
5938;DHT22;2994;51.220;4.412;2023-05-08T08:24:22;17.68;75.53
5938;DHT22;2994;51.220;4.412;2023-05-08T08:26:48;17.74;75.50
5938;DHT22;2994;51.220;4.412;2023-05-08T08:29:13;17.82;75.58
5938;DHT22;2994;51.220;4.412;2023-05-08T08:31:39;17.93;74.91
5938;DHT22;2994;51.220;4.412;2023-05-08T08:34:04;17.78;75.38
5938;DHT22;2994;51.220;4.412;2023-05-08T08:36:30;17.81;75.55
5938;DHT22;2994;51.220;4.412;2023-05-08T08:38:56;17.78;75.58
5938;DHT22;2994;51.220;4.412;2023-05-08T08:41:22;17.94;75.14
5938;DHT22;2994;51.220;4.412;2023-05-08T08:43:48;18.10;74.89
5938;DHT22;2994;51.220;4.412;2023-05-08T08:46:13;18.12;75.23
5938;DHT22;2994;51.220;4.412;2023-05-08T08:48:43;18.02;75.31
5938;DHT22;2994;51.220;4.412;2023-05-08T08:51:26;18.06;75.12
5938;DHT22;2994;51.220;4.412;2023-05-08T08:54:18;17.92;75.31
5938;DHT22;2994;51.220;4.412;2023-05-08T08:56:44;17.95;75.46
5938;DHT22;2994;51.220;4.412;2023-05-08T08:59:15;17.87;75.82
5938;DHT22;2994;51.220;4.412;2023-05-08T09:01:43;17.83;75.86
5938;DHT22;2994;51.220;4.412;2023-05-08T09:04:10;17.84;75.97
5938;DHT22;2994;51.220;4.412;2023-05-08T09:06:36;17.91;75.88
5938;DHT22;2994;51.220;4.412;2023-05-08T09:09:03;17.96;75.71
5938;DHT22;2994;51.220;4.412;2023-05-08T09:11:28;17.88;76.24
5938;DHT22;2994;51.220;4.412;2023-05-08T09:13:54;17.97;75.73
5938;DHT22;2994;51.220;4.412;2023-05-08T09:16:20;17.87;76.23
5938;DHT22;2994;51.220;4.412;2023-05-08T09:18:46;17.96;75.95
5938;DHT22;2994;51.220;4.412;2023-05-08T09:21:11;17.92;76.35
5938;DHT22;2994;51.220;4.412;2023-05-08T09:24:02;17.76;76.79
5938;DHT22;2994;51.220;4.412;2023-05-08T09:26:40;17.82;76.70
5938;DHT22;2994;51.220;4.412;2023-05-08T09:29:20;17.96;76.35
5938;DHT22;2994;51.220;4.412;2023-05-08T09:31:51;18.12;76.32
5938;DHT22;2994;51.220;4.412;2023-05-08T09:34:27;18.29;75.45
5938;DHT22;2994;51.220;4.412;2023-05-08T09:36:53;18.22;75.41
5938;DHT22;2994;51.220;4.412;2023-05-08T09:39:23;18.24;75.26
5938;DHT22;2994;51.220;4.412;2023-05-08T09:41:59;18.27;74.96
5938;DHT22;2994;51.220;4.412;2023-05-08T09:44:25;18.17;75.19
5938;DHT22;2994;51.220;4.412;2023-05-08T09:46:51;18.15;75.41
5938;DHT22;2994;51.220;4.412;2023-05-08T09:49:17;18.19;75.21
5938;DHT22;2994;51.220;4.412;2023-05-08T09:51:52;18.37;74.44
5938;DHT22;2994;51.220;4.412;2023-05-08T09:54:18;18.47;74.05
5938;DHT22;2994;51.220;4.412;2023-05-08T09:56:44;18.66;73.74
5938;DHT22;2994;51.220;4.412;2023-05-08T09:59:27;18.64;73.76
5938;DHT22;2994;51.220;4.412;2023-05-08T10:01:54;18.67;73.57
5938;DHT22;2994;51.220;4.412;2023-05-08T10:04:36;18.63;73.84
5938;DHT22;2994;51.220;4.412;2023-05-08T10:07:02;18.66;73.61
5938;DHT22;2994;51.220;4.412;2023-05-08T10:09:28;18.79;73.10
5938;DHT22;2994;51.220;4.412;2023-05-08T10:11:54;18.81;72.96
5938;DHT22;2994;51.220;4.412;2023-05-08T10:14:22;18.69;73.02
5938;DHT22;2994;51.220;4.412;2023-05-08T10:16:49;18.73;72.58
5938;DHT22;2994;51.220;4.412;2023-05-08T10:19:19;18.96;72.36
5938;DHT22;2994;51.220;4.412;2023-05-08T10:21:49;18.87;72.74
5938;DHT22;2994;51.220;4.412;2023-05-08T10:24:20;19.01;72.63
5938;DHT22;2994;51.220;4.412;2023-05-08T10:27:08;19.26;71.87
5938;DHT22;2994;51.220;4.412;2023-05-08T10:29:46;19.30;71.83
5938;DHT22;2994;51.220;4.412;2023-05-08T10:32:18;19.29;71.32
5938;DHT22;2994;51.220;4.412;2023-05-08T10:34:46;19.31;70.73
5938;DHT22;2994;51.220;4.412;2023-05-08T10:37:13;19.16;71.25
5938;DHT22;2994;51.220;4.412;2023-05-08T10:39:41;19.23;71.04
5938;DHT22;2994;51.220;4.412;2023-05-08T10:42:08;19.12;71.20
5938;DHT22;2994;51.220;4.412;2023-05-08T10:44:34;19.38;70.12
5938;DHT22;2994;51.220;4.412;2023-05-08T10:47:10;19.36;70.10
5938;DHT22;2994;51.220;4.412;2023-05-08T10:50:03;19.86;68.71
5938;DHT22;2994;51.220;4.412;2023-05-08T10:55:15;19.66;67.69
5938;DHT22;2994;51.220;4.412;2023-05-08T10:58:05;19.74;67.28
5938;DHT22;2994;51.220;4.412;2023-05-08T11:03:18;19.73;67.67
5938;DHT22;2994;51.220;4.412;2023-05-08T11:05:48;19.88;67.39
5938;DHT22;2994;51.220;4.412;2023-05-08T11:08:18;19.96;67.39
5938;DHT22;2994;51.220;4.412;2023-05-08T11:16:02;19.88;68.08
5938;DHT22;2994;51.220;4.412;2023-05-08T11:18:28;20.01;67.75
5938;DHT22;2994;51.220;4.412;2023-05-08T11:20:58;20.07;67.90
5938;DHT22;2994;51.220;4.412;2023-05-08T11:23:31;20.01;67.29
5938;DHT22;2994;51.220;4.412;2023-05-08T11:28:24;20.01;66.50
5938;DHT22;2994;51.220;4.412;2023-05-08T11:30:53;19.89;66.98
5938;DHT22;2994;51.220;4.412;2023-05-08T11:33:27;19.90;67.45
5938;DHT22;2994;51.220;4.412;2023-05-08T11:36:12;20.05;66.98
5938;DHT22;2994;51.220;4.412;2023-05-08T11:38:38;20.16;67.08
5938;DHT22;2994;51.220;4.412;2023-05-08T11:41:07;20.12;67.52
5938;DHT22;2994;51.220;4.412;2023-05-08T11:46:14;20.45;67.02
5938;DHT22;2994;51.220;4.412;2023-05-08T11:48:40;20.37;66.56
5938;DHT22;2994;51.220;4.412;2023-05-08T11:51:06;20.48;66.33
5938;DHT22;2994;51.220;4.412;2023-05-08T11:53:31;20.54;65.62
5938;DHT22;2994;51.220;4.412;2023-05-08T11:55:58;20.56;65.24
5938;DHT22;2994;51.220;4.412;2023-05-08T11:58:25;20.62;65.14
5938;DHT22;2994;51.220;4.412;2023-05-08T12:00:50;20.40;64.51
5938;DHT22;2994;51.220;4.412;2023-05-08T12:03:17;20.25;64.85
5938;DHT22;2994;51.220;4.412;2023-05-08T12:05:43;20.15;65.31
5938;DHT22;2994;51.220;4.412;2023-05-08T12:08:09;20.06;65.92
5938;DHT22;2994;51.220;4.412;2023-05-08T12:13:21;20.45;65.37
5938;DHT22;2994;51.220;4.412;2023-05-08T12:15:50;20.33;65.53
5938;DHT22;2994;51.220;4.412;2023-05-08T12:18:17;20.48;64.63
5938;DHT22;2994;51.220;4.412;2023-05-08T12:20:43;20.42;64.28
5938;DHT22;2994;51.220;4.412;2023-05-08T12:23:09;20.51;63.93
5938;DHT22;2994;51.220;4.412;2023-05-08T12:25:36;20.57;63.82
5938;DHT22;2994;51.220;4.412;2023-05-08T12:28:03;20.60;63.34
5938;DHT22;2994;51.220;4.412;2023-05-08T12:30:28;20.48;63.89
5938;DHT22;2994;51.220;4.412;2023-05-08T12:32:54;20.42;64.11
5938;DHT22;2994;51.220;4.412;2023-05-08T12:35:20;20.47;64.23
5938;DHT22;2994;51.220;4.412;2023-05-08T12:37:46;20.46;64.67
5938;DHT22;2994;51.220;4.412;2023-05-08T12:40:35;20.47;64.67
5938;DHT22;2994;51.220;4.412;2023-05-08T12:43:04;20.65;64.34
5938;DHT22;2994;51.220;4.412;2023-05-08T12:45:32;20.61;64.80
5938;DHT22;2994;51.220;4.412;2023-05-08T12:48:00;20.68;64.05
5938;DHT22;2994;51.220;4.412;2023-05-08T12:50:27;20.54;64.72
5938;DHT22;2994;51.220;4.412;2023-05-08T12:53:00;20.56;64.64
5938;DHT22;2994;51.220;4.412;2023-05-08T12:55:28;20.79;64.21
5938;DHT22;2994;51.220;4.412;2023-05-08T12:58:11;20.72;64.06
5938;DHT22;2994;51.220;4.412;2023-05-08T13:00:45;20.74;63.67
5938;DHT22;2994;51.220;4.412;2023-05-08T13:03:20;21.00;63.27
5938;DHT22;2994;51.220;4.412;2023-05-08T13:05:49;21.19;62.93
5938;DHT22;2994;51.220;4.412;2023-05-08T13:08:17;21.22;62.45
5938;DHT22;2994;51.220;4.412;2023-05-08T13:10:52;21.16;62.05
5938;DHT22;2994;51.220;4.412;2023-05-08T13:13:23;21.22;61.41
5938;DHT22;2994;51.220;4.412;2023-05-08T13:15:53;21.31;61.16
5938;DHT22;2994;51.220;4.412;2023-05-08T13:18:19;21.19;61.28
5938;DHT22;2994;51.220;4.412;2023-05-08T13:20:45;21.19;61.37
5938;DHT22;2994;51.220;4.412;2023-05-08T13:23:11;21.00;61.54
5938;DHT22;2994;51.220;4.412;2023-05-08T13:25:38;21.23;61.46
5938;DHT22;2994;51.220;4.412;2023-05-08T13:28:06;21.23;61.31
5938;DHT22;2994;51.220;4.412;2023-05-08T13:30:32;21.32;61.30
5938;DHT22;2994;51.220;4.412;2023-05-08T13:32:58;21.36;61.20
5938;DHT22;2994;51.220;4.412;2023-05-08T13:35:41;21.30;60.84
5938;DHT22;2994;51.220;4.412;2023-05-08T13:38:06;21.27;60.65
5938;DHT22;2994;51.220;4.412;2023-05-08T13:40:32;21.32;61.26
5938;DHT22;2994;51.220;4.412;2023-05-08T13:42:58;21.30;60.87
5938;DHT22;2994;51.220;4.412;2023-05-08T13:45:23;21.35;61.21
5938;DHT22;2994;51.220;4.412;2023-05-08T13:47:49;21.32;61.83
5938;DHT22;2994;51.220;4.412;2023-05-08T13:50:31;21.24;61.70
5938;DHT22;2994;51.220;4.412;2023-05-08T13:53:12;21.13;61.61
5938;DHT22;2994;51.220;4.412;2023-05-08T13:55:38;21.22;61.61
5938;DHT22;2994;51.220;4.412;2023-05-08T13:58:03;21.14;61.76
5938;DHT22;2994;51.220;4.412;2023-05-08T14:00:29;21.18;61.78
5938;DHT22;2994;51.220;4.412;2023-05-08T14:02:54;21.33;61.30
5938;DHT22;2994;51.220;4.412;2023-05-08T14:05:20;21.25;60.81
5938;DHT22;2994;51.220;4.412;2023-05-08T14:07:45;21.18;61.01
5938;DHT22;2994;51.220;4.412;2023-05-08T14:10:11;21.02;61.44
5938;DHT22;2994;51.220;4.412;2023-05-08T14:12:36;21.11;61.18
5938;DHT22;2994;51.220;4.412;2023-05-08T14:15:05;21.05;61.32
5938;DHT22;2994;51.220;4.412;2023-05-08T14:17:31;21.09;61.74
5938;DHT22;2994;51.220;4.412;2023-05-08T14:19:56;21.13;62.15
5938;DHT22;2994;51.220;4.412;2023-05-08T14:22:22;21.24;61.89
5938;DHT22;2994;51.220;4.412;2023-05-08T14:24:47;21.32;62.11
5938;DHT22;2994;51.220;4.412;2023-05-08T14:27:13;21.36;61.27
5938;DHT22;2994;51.220;4.412;2023-05-08T14:29:38;21.31;61.10
5938;DHT22;2994;51.220;4.412;2023-05-08T14:32:05;21.35;60.87
5938;DHT22;2994;51.220;4.412;2023-05-08T14:34:31;21.23;61.17
5938;DHT22;2994;51.220;4.412;2023-05-08T14:36:56;21.28;61.48
5938;DHT22;2994;51.220;4.412;2023-05-08T14:39:22;21.24;61.04
5938;DHT22;2994;51.220;4.412;2023-05-08T14:41:47;21.46;60.90
5938;DHT22;2994;51.220;4.412;2023-05-08T14:44:13;21.52;60.81
5938;DHT22;2994;51.220;4.412;2023-05-08T14:46:38;21.55;61.02
5938;DHT22;2994;51.220;4.412;2023-05-08T14:49:04;21.49;62.06
5938;DHT22;2994;51.220;4.412;2023-05-08T14:51:29;21.19;62.72
5938;DHT22;2994;51.220;4.412;2023-05-08T14:53:55;21.21;62.04
5938;DHT22;2994;51.220;4.412;2023-05-08T14:56:21;20.99;63.51
5938;DHT22;2994;51.220;4.412;2023-05-08T14:58:49;20.89;63.98
5938;DHT22;2994;51.220;4.412;2023-05-08T15:01:15;20.65;65.00
5938;DHT22;2994;51.220;4.412;2023-05-08T15:03:41;20.76;64.44
5938;DHT22;2994;51.220;4.412;2023-05-08T15:06:06;20.77;64.53
5938;DHT22;2994;51.220;4.412;2023-05-08T15:08:32;20.83;64.50
5938;DHT22;2994;51.220;4.412;2023-05-08T15:10:58;20.91;64.14
5938;DHT22;2994;51.220;4.412;2023-05-08T15:13:23;21.03;64.00
5938;DHT22;2994;51.220;4.412;2023-05-08T15:15:49;21.07;64.18
5938;DHT22;2994;51.220;4.412;2023-05-08T15:18:15;21.08;64.27
5938;DHT22;2994;51.220;4.412;2023-05-08T15:20:40;20.96;64.11
5938;DHT22;2994;51.220;4.412;2023-05-08T15:23:08;20.96;64.30
5938;DHT22;2994;51.220;4.412;2023-05-08T15:25:34;20.72;64.93
5938;DHT22;2994;51.220;4.412;2023-05-08T15:27:59;20.79;64.52
5938;DHT22;2994;51.220;4.412;2023-05-08T15:30:25;20.74;64.60
5938;DHT22;2994;51.220;4.412;2023-05-08T15:32:50;20.74;64.72
5938;DHT22;2994;51.220;4.412;2023-05-08T15:35:16;20.56;64.97
5938;DHT22;2994;51.220;4.412;2023-05-08T15:37:42;20.43;65.04
5938;DHT22;2994;51.220;4.412;2023-05-08T15:40:08;20.39;65.17
5938;DHT22;2994;51.220;4.412;2023-05-08T15:42:34;20.33;65.00
5938;DHT22;2994;51.220;4.412;2023-05-08T15:44:59;20.31;65.24
5938;DHT22;2994;51.220;4.412;2023-05-08T15:47:26;20.21;65.40
5938;DHT22;2994;51.220;4.412;2023-05-08T15:49:54;20.24;65.01
5938;DHT22;2994;51.220;4.412;2023-05-08T15:52:20;20.30;64.82
5938;DHT22;2994;51.220;4.412;2023-05-08T15:54:47;20.21;65.01
5938;DHT22;2994;51.220;4.412;2023-05-08T15:57:13;20.32;64.59
5938;DHT22;2994;51.220;4.412;2023-05-08T15:59:39;20.14;64.86
5938;DHT22;2994;51.220;4.412;2023-05-08T16:02:04;20.17;64.56
5938;DHT22;2994;51.220;4.412;2023-05-08T16:04:30;20.20;64.41
5938;DHT22;2994;51.220;4.412;2023-05-08T16:06:57;20.29;64.41
5938;DHT22;2994;51.220;4.412;2023-05-08T16:09:23;20.95;62.12
5938;DHT22;2994;51.220;4.412;2023-05-08T16:11:48;20.62;63.02
5938;DHT22;2994;51.220;4.412;2023-05-08T16:14:13;20.46;63.34
5938;DHT22;2994;51.220;4.412;2023-05-08T16:16:40;20.41;63.46
5938;DHT22;2994;51.220;4.412;2023-05-08T16:19:06;20.31;63.94
5938;DHT22;2994;51.220;4.412;2023-05-08T16:21:31;20.24;64.50
5938;DHT22;2994;51.220;4.412;2023-05-08T16:23:57;19.88;65.36
5938;DHT22;2994;51.220;4.412;2023-05-08T16:26:22;19.91;65.02
5938;DHT22;2994;51.220;4.412;2023-05-08T16:28:48;20.03;64.88
5938;DHT22;2994;51.220;4.412;2023-05-08T16:31:14;20.10;64.42
5938;DHT22;2994;51.220;4.412;2023-05-08T16:33:42;20.22;64.02
5938;DHT22;2994;51.220;4.412;2023-05-08T16:36:08;19.99;64.63